createdAt,value
2018-12-04T00:02:07.640Z,33.97
2018-12-04T00:04:35.631Z,33.07
2018-12-04T00:07:03.445Z,26.20
2018-12-04T00:09:31.412Z,23.27
2018-12-04T00:12:00.045Z,22.53
2018-12-04T00:14:27.862Z,25.17
2018-12-04T00:16:55.839Z,33.13
2018-12-04T00:19:23.406Z,44.60
2018-12-04T00:21:51.048Z,29.47
2018-12-04T00:24:18.974Z,27.60
2018-12-04T00:26:46.509Z,24.00
2018-12-04T00:29:14.231Z,37.03
2018-12-04T00:31:42.124Z,39.43
2018-12-04T00:34:09.664Z,37.00
2018-12-04T00:36:37.194Z,36.77
2018-12-04T00:39:06.218Z,40.33
2018-12-04T00:41:33.888Z,68.73
2018-12-04T00:44:01.631Z,53.03
2018-12-04T00:46:29.207Z,58.77
2018-12-04T00:48:56.752Z,56.60
2018-12-04T00:51:24.298Z,57.63
2018-12-04T00:53:52.098Z,73.13
2018-12-04T00:56:19.986Z,73.70
2018-12-04T00:58:47.855Z,68.37
2018-12-04T01:01:15.942Z,65.43
2018-12-04T01:03:43.734Z,58.60
2018-12-04T01:06:11.269Z,58.63
2018-12-04T01:08:39.109Z,61.13
2018-12-04T01:11:07.151Z,58.60
2018-12-04T01:13:34.836Z,68.87
2018-12-04T01:16:02.510Z,65.40
2018-12-04T01:18:30.307Z,82.43
2018-12-04T01:20:57.846Z,81.80
2018-12-04T01:23:25.730Z,85.93
2018-12-04T01:25:53.510Z,83.70
2018-12-04T01:28:21.315Z,81.13
2018-12-04T01:30:48.972Z,71.13
2018-12-04T01:33:16.739Z,68.43
2018-12-04T01:35:44.474Z,65.50
2018-12-04T01:38:12.179Z,65.00
2018-12-04T01:40:40.008Z,67.27
2018-12-04T01:43:07.538Z,67.53
2018-12-04T01:45:35.432Z,87.50
2018-12-04T01:48:03.112Z,73.77
2018-12-04T01:50:30.647Z,92.63
2018-12-04T01:52:58.211Z,76.77
2018-12-04T01:55:26.094Z,76.47
2018-12-04T01:57:53.966Z,67.10
2018-12-04T02:00:21.857Z,57.57
2018-12-04T02:02:49.637Z,59.63
2018-12-04T02:05:17.507Z,62.27
2018-12-04T02:07:45.642Z,64.40
2018-12-04T02:10:13.483Z,66.50
2018-12-04T02:12:41.123Z,57.73
2018-12-04T02:15:08.810Z,71.70
2018-12-04T02:17:36.822Z,39.00
2018-12-04T02:20:04.547Z,59.13
2018-12-04T02:22:32.584Z,45.50
2018-12-04T02:25:00.267Z,44.53
2018-12-04T02:27:28.284Z,46.17
2018-12-04T02:29:55.846Z,41.53
2018-12-04T02:32:23.388Z,60.13
2018-12-04T02:34:50.975Z,33.23
2018-12-04T02:37:18.635Z,44.07
2018-12-04T02:39:46.391Z,35.00
2018-12-04T02:42:16.342Z,39.03
2018-12-04T02:44:44.335Z,24.77
2018-12-04T02:47:12.289Z,29.20
2018-12-04T02:49:40.130Z,30.47
2018-12-04T02:52:07.854Z,20.03
2018-12-04T02:54:35.760Z,23.53
2018-12-04T02:57:03.290Z,20.03
2018-12-04T02:59:31.205Z,19.43
2018-12-04T03:01:59.066Z,35.30
2018-12-04T03:04:26.678Z,42.50
2018-12-04T03:06:54.275Z,33.80
2018-12-04T03:09:22.206Z,24.47
2018-12-04T03:11:49.753Z,20.43
2018-12-04T03:14:17.336Z,15.87
2018-12-04T03:16:44.871Z,17.03
2018-12-04T03:19:12.525Z,15.80
2018-12-04T03:21:40.430Z,18.23
2018-12-04T03:24:08.871Z,15.77
2018-12-04T03:26:36.420Z,15.07
2018-12-04T03:29:04.344Z,16.80
2018-12-04T03:31:31.968Z,15.00
2018-12-04T03:33:59.657Z,23.00
2018-12-04T03:36:27.389Z,22.57
2018-12-04T03:38:54.927Z,17.73
2018-12-04T03:41:22.669Z,13.57
2018-12-04T03:43:50.248Z,10.80
2018-12-04T03:46:17.987Z,12.10
2018-12-04T03:48:45.526Z,11.17
2018-12-04T03:51:13.288Z,11.67
2018-12-04T03:53:41.118Z,12.17
2018-12-04T03:56:09.030Z,13.40
2018-12-04T03:58:36.775Z,13.73
2018-12-04T04:01:04.311Z,13.73
2018-12-04T04:03:32.310Z,13.47
2018-12-04T04:05:59.870Z,11.13
2018-12-04T04:08:27.406Z,12.60
2018-12-04T04:10:55.152Z,10.37
2018-12-04T04:13:22.841Z,10.63
2018-12-04T04:15:50.676Z,12.23
2018-12-04T04:18:18.266Z,13.17
2018-12-04T04:20:46.073Z,13.90
2018-12-04T04:23:14.509Z,10.73
2018-12-04T04:25:42.201Z,14.37
2018-12-04T04:28:09.890Z,11.87
2018-12-04T04:30:37.938Z,11.40
2018-12-04T04:33:06.400Z,12.60
2018-12-04T04:35:33.994Z,11.20
2018-12-04T04:38:01.578Z,10.23
2018-12-04T04:40:29.190Z,10.83
2018-12-04T04:42:56.774Z,11.47
2018-12-04T04:45:24.692Z,11.33
2018-12-04T04:47:52.414Z,9.33
2018-12-04T04:50:20.218Z,15.03
2018-12-04T04:52:47.945Z,12.53
2018-12-04T04:55:16.673Z,9.10
2018-12-04T04:57:44.477Z,9.63
2018-12-04T05:00:12.007Z,10.63
2018-12-04T05:02:39.936Z,8.37
2018-12-04T05:05:07.642Z,8.20
2018-12-04T05:07:35.494Z,10.60
2018-12-04T05:10:03.432Z,9.87
2018-12-04T05:12:31.211Z,10.30
2018-12-04T05:14:59.039Z,10.90
2018-12-04T05:17:26.868Z,12.77
2018-12-04T05:19:54.820Z,18.77
2018-12-04T05:22:22.498Z,14.77
2018-12-04T05:24:50.032Z,9.60
2018-12-04T05:27:17.978Z,8.63
2018-12-04T05:29:45.917Z,8.20
2018-12-04T05:32:13.716Z,8.97
2018-12-04T05:34:42.012Z,8.43
2018-12-04T05:37:09.687Z,9.53
2018-12-04T05:39:37.785Z,8.97
2018-12-04T05:42:05.351Z,11.73
2018-12-04T05:44:32.874Z,9.13
2018-12-04T05:47:00.735Z,12.17
2018-12-04T05:49:28.300Z,9.90
2018-12-04T05:51:55.891Z,10.77
2018-12-04T05:54:23.684Z,9.63
2018-12-04T05:56:51.454Z,9.40
2018-12-04T05:59:19.207Z,11.07
2018-12-04T06:01:47.074Z,9.47
2018-12-04T06:04:15.011Z,10.00
2018-12-04T06:06:42.623Z,15.90
2018-12-04T06:09:10.154Z,10.10
2018-12-04T06:11:37.728Z,10.77
2018-12-04T06:14:05.558Z,9.43
2018-12-04T06:16:33.278Z,12.60
2018-12-04T06:19:00.887Z,24.77
2018-12-04T06:21:28.419Z,20.67
2018-12-04T06:23:56.020Z,11.70
2018-12-04T06:26:23.681Z,17.27
2018-12-04T06:28:51.601Z,23.43
2018-12-04T06:31:19.308Z,19.10
2018-12-04T06:33:47.542Z,19.00
2018-12-04T06:36:15.258Z,9.20
2018-12-04T06:38:42.797Z,21.73
2018-12-04T06:41:10.711Z,15.50
2018-12-04T06:43:38.739Z,8.40
2018-12-04T06:46:06.631Z,8.03
2018-12-04T06:48:34.246Z,7.83
2018-12-04T06:51:01.993Z,4.73
2018-12-04T06:53:29.556Z,4.87
2018-12-04T06:55:57.539Z,5.17
2018-12-04T06:58:25.175Z,6.07
2018-12-04T07:00:52.998Z,4.20
2018-12-04T07:03:21.521Z,2.70
2018-12-04T07:05:51.670Z,2.73
2018-12-04T07:08:19.406Z,4.13
2018-12-04T07:10:46.967Z,5.07
2018-12-04T07:13:14.512Z,3.83
2018-12-04T07:15:42.394Z,7.47
2018-12-04T07:18:10.287Z,5.57
2018-12-04T07:20:37.974Z,7.27
2018-12-04T07:23:05.838Z,3.73
2018-12-04T07:25:33.399Z,2.00
2018-12-04T07:28:00.942Z,4.07
2018-12-04T07:30:28.471Z,3.27
2018-12-04T07:32:56.249Z,4.40
2018-12-04T07:35:24.135Z,7.27
2018-12-04T07:37:52.236Z,4.40
2018-12-04T07:40:20.060Z,3.23
2018-12-04T07:42:48.143Z,2.33
2018-12-04T07:45:15.678Z,2.50
2018-12-04T07:47:43.451Z,2.90
2018-12-04T07:50:11.122Z,2.67
2018-12-04T07:52:38.783Z,3.10
2018-12-04T07:55:06.345Z,5.17
2018-12-04T07:57:34.495Z,5.40
2018-12-04T08:00:02.188Z,6.30
2018-12-04T08:02:30.120Z,9.80
2018-12-04T08:04:57.911Z,4.57
2018-12-04T08:07:25.724Z,6.03
2018-12-04T08:09:53.648Z,6.60
2018-12-04T08:12:21.455Z,6.50
2018-12-04T08:14:49.348Z,5.77
2018-12-04T08:17:17.212Z,5.77
2018-12-04T08:19:44.908Z,7.60
2018-12-04T08:22:12.456Z,5.73
2018-12-04T08:24:40.376Z,5.20
2018-12-04T08:27:08.499Z,7.83
2018-12-04T08:29:36.067Z,7.20
2018-12-04T08:32:03.659Z,4.70
2018-12-04T08:34:31.197Z,4.40
2018-12-04T08:36:59.113Z,4.00
2018-12-04T08:39:26.698Z,3.00
2018-12-04T08:41:54.533Z,3.37
2018-12-04T08:44:22.164Z,5.20
2018-12-04T08:46:50.369Z,7.20
2018-12-04T08:49:18.257Z,5.43
2018-12-04T08:51:45.959Z,5.20
2018-12-04T08:54:13.627Z,7.13
2018-12-04T08:56:41.419Z,5.23
2018-12-04T08:59:09.100Z,5.70
2018-12-04T09:01:36.721Z,4.83
2018-12-04T09:04:04.607Z,2.83
2018-12-04T09:06:34.509Z,2.40
2018-12-04T09:09:02.404Z,2.23
2018-12-04T09:11:31.076Z,2.47
2018-12-04T09:13:58.934Z,2.50
2018-12-04T09:16:26.606Z,5.60
2018-12-04T09:18:54.475Z,5.57
2018-12-04T09:21:23.242Z,4.00
2018-12-04T09:23:50.919Z,3.53
2018-12-04T09:26:18.589Z,3.27
2018-12-04T09:28:46.222Z,5.00
2018-12-04T09:31:13.912Z,20.57
2018-12-04T09:33:41.712Z,5.00
2018-12-04T09:36:09.491Z,5.83
2018-12-04T09:38:37.403Z,5.30
2018-12-04T09:41:05.218Z,6.67
2018-12-04T09:43:32.751Z,6.47
2018-12-04T09:46:00.463Z,6.00
2018-12-04T09:48:28.438Z,16.30
2018-12-04T09:50:56.505Z,24.03
2018-12-04T09:53:25.313Z,48.53
2018-12-04T09:55:53.365Z,17.53
2018-12-04T09:58:20.901Z,22.03
2018-12-04T10:00:48.725Z,20.23
2018-12-04T10:03:16.414Z,6.87
2018-12-04T10:05:44.451Z,2.97
2018-12-04T10:08:12.186Z,3.47
2018-12-04T10:10:40.044Z,13.60
2018-12-04T10:13:07.723Z,8.90
2018-12-04T10:15:35.415Z,3.57
2018-12-04T10:18:03.207Z,2.40
2018-12-04T10:20:31.120Z,4.43
2018-12-04T10:22:59.172Z,7.73
2018-12-04T10:25:27.008Z,6.30
2018-12-04T10:27:54.542Z,6.20
2018-12-04T10:30:22.103Z,5.70
2018-12-04T10:32:50.748Z,5.37
2018-12-04T10:35:18.322Z,7.50
2018-12-04T10:37:46.058Z,6.10
2018-12-04T10:40:13.835Z,5.70
2018-12-04T10:42:41.446Z,5.37
2018-12-04T10:45:09.239Z,4.87
2018-12-04T10:47:36.807Z,4.03
2018-12-04T10:50:05.586Z,5.13
2018-12-04T10:52:33.160Z,5.07
2018-12-04T10:55:00.883Z,6.50
2018-12-04T10:57:28.530Z,21.23
2018-12-04T10:59:56.109Z,11.37
2018-12-04T11:02:24.154Z,9.47
2018-12-04T11:04:51.707Z,11.70
2018-12-04T11:07:19.320Z,17.20
2018-12-04T11:09:46.879Z,13.20
2018-12-04T11:12:14.418Z,12.37
2018-12-04T11:14:41.992Z,16.23
2018-12-04T11:17:10.019Z,31.80
2018-12-04T11:19:37.554Z,26.00
2018-12-04T11:22:05.156Z,19.27
2018-12-04T11:24:32.709Z,24.87
2018-12-04T11:27:00.325Z,27.83
2018-12-04T11:29:28.109Z,31.80
2018-12-04T11:31:55.997Z,20.90
2018-12-04T11:34:23.598Z,42.90
2018-12-04T11:36:51.479Z,37.33
2018-12-04T11:39:19.328Z,62.17
2018-12-04T11:41:47.163Z,34.10
2018-12-04T11:44:14.932Z,26.90
2018-12-04T11:46:42.761Z,30.67
2018-12-04T11:49:10.586Z,38.83
2018-12-04T11:51:38.156Z,40.77
2018-12-04T11:54:05.691Z,55.77
2018-12-04T11:56:33.303Z,42.13
2018-12-04T11:59:01.511Z,61.57
2018-12-04T12:01:29.609Z,50.77
2018-12-04T12:03:57.148Z,44.07
2018-12-04T12:06:24.726Z,57.83
2018-12-04T12:08:52.567Z,68.30
2018-12-04T12:11:20.103Z,68.43
2018-12-04T12:13:47.680Z,160.30
2018-12-04T12:16:15.286Z,110.23
2018-12-04T12:18:42.845Z,292.87
2018-12-04T12:21:10.814Z,206.33
2018-12-04T12:23:38.372Z,246.63
2018-12-04T12:26:05.930Z,673.57
2018-12-04T12:28:33.613Z,90.90
2018-12-04T12:31:01.253Z,110.23
2018-12-04T12:33:29.072Z,81.87
2018-12-04T12:35:58.782Z,95.07
2018-12-04T12:38:26.419Z,57.93
2018-12-04T12:40:56.019Z,79.17
2018-12-04T12:43:23.886Z,53.63
2018-12-04T12:45:52.184Z,66.37
2018-12-04T12:48:20.077Z,33.23
2018-12-04T12:50:47.657Z,47.60
2018-12-04T12:53:15.198Z,31.53
2018-12-04T12:55:42.735Z,28.03
2018-12-04T12:58:10.487Z,117.27
2018-12-04T13:00:38.283Z,126.10
2018-12-04T13:03:06.664Z,100.73
2018-12-04T13:05:34.607Z,39.17
2018-12-04T13:08:02.167Z,71.87
2018-12-04T13:10:30.014Z,170.47
2018-12-04T13:12:57.987Z,115.60
2018-12-04T13:15:25.543Z,123.17
2018-12-04T13:17:53.706Z,58.97
2018-12-04T13:20:21.411Z,19.33
2018-12-04T13:22:49.120Z,21.20
2018-12-04T13:25:16.665Z,24.53
2018-12-04T13:27:44.888Z,22.20
2018-12-04T13:30:12.459Z,22.10
2018-12-04T13:32:40.215Z,22.03
2018-12-04T13:35:07.788Z,33.23
2018-12-04T13:37:35.621Z,32.23
2018-12-04T13:40:08.665Z,22.47
2018-12-04T13:42:34.544Z,22.63
2018-12-04T13:45:02.294Z,54.50
2018-12-04T13:47:29.971Z,32.17
2018-12-04T13:49:57.687Z,92.33
2018-12-04T13:52:25.239Z,17.17
2018-12-04T13:54:52.784Z,13.27
2018-12-04T13:57:20.523Z,16.43
2018-12-04T13:59:48.081Z,36.60
2018-12-04T14:02:15.622Z,43.83
2018-12-04T14:04:44.162Z,32.97
2018-12-04T14:07:12.336Z,14.77
2018-12-04T14:09:40.448Z,15.83
2018-12-04T14:12:08.784Z,12.07
2018-12-04T14:14:36.410Z,10.63
2018-12-04T14:17:04.480Z,17.40
2018-12-04T14:19:32.878Z,17.57
2018-12-04T14:22:00.541Z,23.57
2018-12-04T14:24:28.515Z,22.50
2018-12-04T14:26:56.097Z,33.13
2018-12-04T14:29:23.726Z,19.97
2018-12-04T14:31:51.727Z,43.93
2018-12-04T14:34:19.366Z,6.43
2018-12-04T14:36:47.337Z,5.87
2018-12-04T14:39:15.932Z,18.93
2018-12-04T14:41:43.513Z,8.70
2018-12-04T14:44:11.803Z,13.13
2018-12-04T14:46:39.746Z,12.20
2018-12-04T14:49:07.354Z,26.87
2018-12-04T14:51:34.988Z,72.20
2018-12-04T14:54:02.964Z,48.03
2018-12-04T14:56:31.017Z,23.50
2018-12-04T14:58:58.694Z,14.70
2018-12-04T15:01:26.319Z,19.67
2018-12-04T15:03:54.408Z,15.70
2018-12-04T15:06:22.467Z,26.33
2018-12-04T15:08:50.323Z,43.13
2018-12-04T15:11:18.085Z,41.73
2018-12-04T15:13:46.273Z,40.27
2018-12-04T15:16:14.127Z,42.83
2018-12-04T15:18:42.080Z,50.30
2018-12-04T15:21:10.273Z,207.23
2018-12-04T15:23:37.927Z,124.60
2018-12-04T15:26:05.753Z,46.87
2018-12-04T15:28:33.476Z,78.43
2018-12-04T15:31:03.417Z,80.07
2018-12-04T15:33:31.357Z,52.30
2018-12-04T15:35:59.097Z,48.53
2018-12-04T15:38:26.768Z,60.80
2018-12-04T15:40:54.706Z,95.00
2018-12-04T15:43:22.348Z,129.30
2018-12-04T15:45:50.166Z,101.73
2018-12-04T15:48:18.052Z,82.93
2018-12-04T15:50:45.731Z,77.17
2018-12-04T15:53:13.325Z,66.43
2018-12-04T15:55:41.271Z,103.17
2018-12-04T15:58:08.806Z,88.20
2018-12-04T16:00:36.525Z,63.63
2018-12-04T16:03:04.387Z,43.03
2018-12-04T16:05:31.947Z,45.17
2018-12-04T16:07:59.503Z,49.87
2018-12-04T16:10:27.396Z,56.20
2018-12-04T16:12:55.160Z,73.30
2018-12-04T16:15:23.002Z,101.37
2018-12-04T16:17:50.711Z,93.23
2018-12-04T16:20:18.811Z,38.97
2018-12-04T16:22:46.728Z,69.60
2018-12-04T16:25:14.333Z,67.37
2018-12-04T16:27:41.875Z,63.70
2018-12-04T16:30:09.888Z,96.13
2018-12-04T16:32:37.751Z,195.43
2018-12-04T16:35:06.104Z,60.00
2018-12-04T16:37:33.888Z,19.97
2018-12-04T16:40:01.462Z,28.37
2018-12-04T16:42:29.416Z,30.40
2018-12-04T16:44:57.484Z,16.30
2018-12-04T16:47:25.072Z,14.00
2018-12-04T16:49:52.986Z,26.50
2018-12-04T16:52:20.515Z,13.57
2018-12-04T16:54:48.383Z,15.10
2018-12-04T16:57:16.731Z,19.07
2018-12-04T16:59:44.289Z,16.97
2018-12-04T17:02:12.624Z,12.50
2018-12-04T17:04:40.643Z,16.17
2018-12-04T17:07:09.276Z,7.97
2018-12-04T17:09:37.164Z,8.43
2018-12-04T17:12:04.701Z,11.57
2018-12-04T17:14:32.339Z,8.80
2018-12-04T17:17:00.154Z,21.07
2018-12-04T17:19:27.691Z,16.13
2018-12-04T17:21:55.261Z,17.07
2018-12-04T17:24:22.839Z,24.27
2018-12-04T17:26:50.368Z,22.83
2018-12-04T17:29:18.245Z,24.57
2018-12-04T17:31:45.920Z,30.67
2018-12-04T17:34:13.742Z,22.90
2018-12-04T17:36:41.322Z,29.60
2018-12-04T17:39:09.122Z,22.17
2018-12-04T17:41:36.653Z,31.17
2018-12-04T17:44:04.216Z,63.63
2018-12-04T17:46:31.807Z,28.13
2018-12-04T17:48:59.595Z,19.60
2018-12-04T17:51:27.250Z,43.43
2018-12-04T17:53:55.508Z,115.43
2018-12-04T17:56:23.056Z,12.33
2018-12-04T17:58:51.172Z,22.00
2018-12-04T18:01:19.599Z,25.30
2018-12-04T18:03:47.171Z,29.07
2018-12-04T18:06:14.729Z,34.83
2018-12-04T18:08:42.564Z,44.93
2018-12-04T18:11:10.727Z,30.73
2018-12-04T18:13:38.265Z,22.90
2018-12-04T18:16:05.848Z,24.23
2018-12-04T18:18:33.622Z,27.20
2018-12-04T18:21:01.170Z,41.87
2018-12-04T18:23:28.777Z,40.17
2018-12-04T18:25:56.324Z,23.93
2018-12-04T18:28:23.909Z,54.37
2018-12-04T18:30:51.850Z,48.80
2018-12-04T18:33:19.879Z,58.70
2018-12-04T18:35:47.541Z,45.13
2018-12-04T18:38:15.809Z,40.97
2018-12-04T18:40:44.335Z,64.97
2018-12-04T18:43:12.219Z,49.30
2018-12-04T18:45:39.941Z,35.90
2018-12-04T18:48:07.682Z,51.73
2018-12-04T18:50:35.589Z,42.00
2018-12-04T18:53:03.502Z,48.83
2018-12-04T18:55:31.186Z,45.73
2018-12-04T18:57:58.921Z,63.00
2018-12-04T19:00:26.843Z,109.43
2018-12-04T19:02:54.713Z,107.30
2018-12-04T19:05:22.715Z,78.57
2018-12-04T19:07:50.718Z,265.90
2018-12-04T19:10:18.284Z,201.70
2018-12-04T19:12:46.198Z,134.93
2018-12-04T19:15:13.946Z,116.33
2018-12-04T19:17:41.501Z,181.30
2018-12-04T19:20:09.053Z,271.47
2018-12-04T19:22:36.718Z,201.07
2018-12-04T19:25:05.481Z,183.93
2018-12-04T19:27:33.735Z,120.77
2018-12-04T19:30:01.833Z,184.53
2018-12-04T19:32:30.342Z,194.23
2018-12-04T19:34:57.931Z,206.77
2018-12-04T19:37:25.913Z,232.47
2018-12-04T19:39:54.177Z,427.80
2018-12-04T19:42:21.750Z,127.53
2018-12-04T19:44:49.815Z,66.27
2018-12-04T19:47:17.677Z,113.50
2018-12-04T19:49:45.223Z,79.83
2018-12-04T19:52:12.812Z,41.80
2018-12-04T19:54:40.865Z,35.00
2018-12-04T19:57:08.513Z,42.70
2018-12-04T19:59:36.523Z,53.50
2018-12-04T20:02:07.870Z,83.27
2018-12-04T20:04:35.498Z,70.10
2018-12-04T20:07:03.095Z,178.67
2018-12-04T20:09:30.825Z,72.63
2018-12-04T20:11:59.775Z,149.60
2018-12-04T20:14:27.375Z,31.93
2018-12-04T20:16:55.239Z,41.13
2018-12-04T20:19:22.812Z,24.47
2018-12-04T20:21:50.665Z,17.00
2018-12-04T20:24:18.641Z,22.87
2018-12-04T20:26:46.635Z,15.70
2018-12-04T20:29:14.711Z,18.87
2018-12-04T20:31:42.533Z,19.87
2018-12-04T20:34:10.563Z,16.80
2018-12-04T20:36:38.758Z,23.47
2018-12-04T20:39:06.671Z,26.50
2018-12-04T20:41:34.826Z,33.53
2018-12-04T20:44:02.678Z,23.13
2018-12-04T20:46:30.228Z,29.97
2018-12-04T20:48:58.212Z,18.70
2018-12-04T20:51:26.072Z,11.17
2018-12-04T20:53:54.013Z,21.00
2018-12-04T20:56:21.951Z,26.53
2018-12-04T20:58:49.850Z,14.97
2018-12-04T21:01:18.013Z,24.53
2018-12-04T21:03:45.805Z,21.80
2018-12-04T21:06:13.743Z,34.00
2018-12-04T21:08:41.849Z,16.27
2018-12-04T21:11:09.493Z,33.73
2018-12-04T21:13:37.680Z,24.93
2018-12-04T21:16:05.366Z,35.70
2018-12-04T21:18:33.393Z,22.13
2018-12-04T21:21:01.274Z,19.77
2018-12-04T21:23:29.376Z,24.77
2018-12-04T21:25:57.034Z,41.67
2018-12-04T21:28:25.250Z,23.60
2018-12-04T21:30:59.304Z,45.43
2018-12-04T21:33:32.585Z,13.47
2018-12-04T21:36:05.950Z,29.00
2018-12-04T21:41:42.987Z,21.10
2018-12-04T21:44:16.578Z,20.37
2018-12-04T21:46:50.094Z,17.13
2018-12-04T21:49:25.417Z,39.93
2018-12-04T21:51:53.095Z,15.60
2018-12-04T21:54:20.776Z,60.33
2018-12-04T21:56:48.809Z,28.27
2018-12-04T21:59:16.516Z,63.50
2018-12-04T22:01:44.331Z,43.93
2018-12-04T22:04:12.262Z,14.03
2018-12-04T22:06:39.792Z,15.23
2018-12-04T22:09:08.036Z,21.33
2018-12-04T22:11:35.861Z,18.50
2018-12-04T22:14:04.696Z,23.13
2018-12-04T22:16:32.756Z,23.53
2018-12-04T22:19:00.692Z,17.80
2018-12-04T22:21:28.250Z,18.87
2018-12-04T22:23:55.795Z,17.03
2018-12-04T22:26:24.080Z,21.10
2018-12-04T22:28:51.983Z,30.73
2018-12-04T22:31:20.547Z,19.17
2018-12-04T22:33:48.338Z,15.57
2018-12-04T22:36:16.442Z,15.20
2018-12-04T22:38:44.131Z,30.13
2018-12-04T22:41:11.723Z,14.80
2018-12-04T22:43:39.275Z,24.13
2018-12-04T22:46:06.981Z,22.87
2018-12-04T22:48:34.710Z,19.80
2018-12-04T22:51:02.690Z,20.80
2018-12-04T22:53:30.236Z,16.63
2018-12-04T22:55:58.118Z,41.43
2018-12-04T22:58:26.022Z,15.17
2018-12-04T23:00:53.681Z,59.13
2018-12-04T23:03:21.410Z,36.63
2018-12-04T23:05:49.204Z,26.27
2018-12-04T23:08:17.495Z,24.03
2018-12-04T23:10:45.279Z,22.23
2018-12-04T23:13:13.281Z,21.30
2018-12-04T23:15:41.262Z,24.23
2018-12-04T23:18:08.847Z,19.57
2018-12-04T23:20:36.422Z,30.77
2018-12-04T23:23:04.066Z,22.73
2018-12-04T23:25:31.799Z,23.83
2018-12-04T23:27:59.642Z,14.97
2018-12-04T23:30:27.212Z,14.03
2018-12-04T23:32:55.045Z,20.87
2018-12-04T23:35:22.687Z,19.13
2018-12-04T23:37:50.610Z,16.07
2018-12-04T23:40:18.183Z,18.37
2018-12-04T23:42:45.768Z,17.27
2018-12-04T23:45:13.550Z,15.90
2018-12-04T23:47:41.518Z,16.80
2018-12-04T23:50:09.358Z,22.57
2018-12-04T23:52:37.309Z,20.20
2018-12-04T23:55:05.146Z,11.90
2018-12-04T23:57:32.925Z,23.37
